Time;durP1;ratioP1;P1;durP2;ratioP2;P2;SDS_P1;SDS_P2;PMS_P1;PMS_P2;Temp;Humidity;BMP_temperature;BMP_pressure;BME280_temperature;BME280_humidity;BME280_pressure;Samples;Min_cycle;Max_cycle;Signal;HPM_P1;HPM_P2
2023/05/14 20:16:00;;;;;;;;;;;;;;;;;;5044938;27;20316;-86
2023/05/14 20:18:46;;;;;;;;;;;;;;;;;;5041634;27;19925;-85
2023/05/14 20:21:33;;;;;;;;;;;;;;;;;;5043142;28;19925;-84
2023/05/14 20:24:19;;;;;;;;;;;;;;;;;;5042232;28;19921;-87
2023/05/14 20:27:06;;;;;;;;;;;;;;;;;;5044408;28;19982;-87
2023/05/14 20:29:53;;;;;;;;;;;;;;;;;;5054280;28;19925;-89
2023/05/14 20:32:39;;;;;;;;;;;;;;;;;;5049190;28;19917;-88
2023/05/14 20:35:25;;;;;;;;;;;;;;;;;;5059310;28;19948;-88
2023/05/14 20:38:12;;;;;;;;;;;;;;;;;;5052100;28;19924;-89
2023/05/14 20:40:59;;;;;;;;;;;;;;;;;;5053360;28;19921;-89
2023/05/14 20:43:45;;;;;;;;;;;;;;;;;;5056332;28;19916;-88
2023/05/14 20:46:32;;;;;;;;;;;;;;;;;;5049691;28;19936;-88
2023/05/14 20:49:18;;;;;;;;;;;;;;;;;;5044401;28;19924;-87
2023/05/14 20:52:05;;;;;;;;;;;;;;;;;;5055279;28;19920;-90
2023/05/14 20:54:51;;;;;;;;;;;;;;;;;;5057989;28;19935;-92
2023/05/14 20:57:39;;;;;;;;;;;;;;;;;;5054450;28;19916;-90
2023/05/14 21:00:25;;;;;;;;;;;;;;;;;;5058540;28;20058;-91
2023/05/14 21:03:12;;;;;;;;;;;;;;;;;;5052759;28;20305;-90
2023/05/14 21:05:59;;;;;;;;;;;;;;;;;;5058656;28;19928;-82
2023/05/14 21:08:45;;;;;;;;;;;;;;;;;;5051021;28;20403;-85
2023/05/14 21:11:32;;;;;;;;;;;;;;;;;;5059214;28;19935;-81
2023/05/14 21:14:19;;;;;;;;;;;;;;;;;;5059076;28;20296;-82
2023/05/14 21:17:05;;;;;;;;;;;;;;;;;;5055884;28;19927;-85
2023/05/14 21:19:52;;;;;;;;;;;;;;;;;;5050000;28;20433;-83
2023/05/14 21:22:38;;;;;;;;;;;;;;;;;;5042377;28;19921;-83
2023/05/14 21:25:25;;;;;;;;;;;;;;;;;;5048979;28;19924;-83
2023/05/14 21:28:11;;;;;;;;;;;;;;;;;;5024253;28;19920;-82
2023/05/14 21:30:58;;;;;;;;;;;;;;;;;;5048343;28;19946;-83
2023/05/14 21:33:44;;;;;;;;;;;;;;;;;;5049705;28;19936;-82
2023/05/14 21:36:31;;;;;;;;;;;;;;;;;;5042919;28;19920;-83
2023/05/14 21:39:17;;;;;;;;;;;;;;;;;;5026534;28;19920;-83
2023/05/14 21:42:04;;;;;;;;;;;;;;;;;;5042587;28;19916;-82
2023/05/14 21:44:50;;;;;;;;;;;;;;;;;;5040253;28;19917;-83
2023/05/14 21:47:36;;;;;;;;;;;;;;;;;;5045938;28;19931;-83
2023/05/14 21:50:23;;;;;;;;;;;;;;;;;;5033295;28;19917;-83
2023/05/14 21:53:10;;;;;;;;;;;;;;;;;;5034025;28;19928;-83
2023/05/14 21:55:56;;;;;;;;;;;;;;;;;;5038229;28;19931;-82
2023/05/14 21:58:42;;;;;;;;;;;;;;;;;;5056869;28;19924;-83
2023/05/14 22:01:29;;;;;;;;;;;;;;;;;;5044096;28;20280;-83
2023/05/14 22:04:16;;;;;;;;;;;;;;;;;;5034575;28;19916;-83
2023/05/14 22:07:02;;;;;;;;;;;;;;;;;;5042797;28;19921;-82
2023/05/14 22:09:49;;;;;;;;;;;;;;;;;;5056188;28;20390;-83
2023/05/14 22:12:35;;;;;;;;;;;;;;;;;;5047566;28;19941;-83
2023/05/14 22:15:22;;;;;;;;;;;;;;;;;;5035785;28;20336;-84
2023/05/14 22:18:08;;;;;;;;;;;;;;;;;;5031409;28;20272;-84
2023/05/14 22:20:55;;;;;;;;;;;;;;;;;;5044805;28;19917;-84
2023/05/14 22:23:41;;;;;;;;;;;;;;;;;;5052934;28;19923;-84
2023/05/14 22:26:28;;;;;;;;;;;;;;;;;;5048669;28;19924;-83
2023/05/14 22:29:14;;;;;;;;;;;;;;;;;;5031878;28;19913;-83
2023/05/14 22:32:08;;;;;;;;;;;;;;;;;;5048198;28;19921;-83
2023/05/14 22:34:54;;;;;;;;;;;;;;;;;;5037781;28;20494;-84
2023/05/14 22:37:41;;;;;;;;;;;;;;;;;;5037648;28;19943;-84
2023/05/14 22:40:28;;;;;;;;;;;;;;;;;;5036138;28;19928;-85
2023/05/14 22:43:14;;;;;;;;;;;;;;;;;;5037377;28;19917;-85
2023/05/14 22:46:00;;;;;;;;;;;;;;;;;;5047249;28;19924;-83
2023/05/14 22:48:47;;;;;;;;;;;;;;;;;;5032167;28;19921;-83
2023/05/14 22:51:34;;;;;;;;;;;;;;;;;;5044200;28;19924;-84
2023/05/14 22:54:21;;;;;;;;;;;;;;;;;;5049675;28;20395;-84
2023/05/14 22:57:07;;;;;;;;;;;;;;;;;;5036373;28;19934;-85
2023/05/14 22:59:54;;;;;;;;;;;;;;;;;;5044152;28;19935;-84
2023/05/14 23:02:40;;;;;;;;;;;;;;;;;;5046302;28;19926;-84
2023/05/14 23:05:26;;;;;;;;;;;;;;;;;;5048478;28;19916;-83
2023/05/14 23:08:13;;;;;;;;;;;;;;;;;;5047479;28;19917;-81
2023/05/14 23:10:59;;;;;;;;;;;;;;;;;;5035454;28;20775;-82
2023/05/14 23:13:46;;;;;;;;;;;;;;;;;;5047032;28;19925;-82
2023/05/14 23:16:32;;;;;;;;;;;;;;;;;;5045475;28;19928;-84
2023/05/14 23:19:19;;;;;;;;;;;;;;;;;;5047650;28;19923;-84
2023/05/14 23:22:06;;;;;;;;;;;;;;;;;;5043053;28;19927;-83
2023/05/14 23:24:52;;;;;;;;;;;;;;;;;;5055733;28;19944;-83
2023/05/14 23:27:39;;;;;;;;;;;;;;;;;;5041263;28;20324;-83
2023/05/14 23:30:25;;;;;;;;;;;;;;;;;;5035904;28;19917;-82
2023/05/14 23:33:12;;;;;;;;;;;;;;;;;;5041258;28;19920;-81
2023/05/14 23:35:58;;;;;;;;;;;;;;;;;;5046830;28;19951;-82
2023/05/14 23:38:45;;;;;;;;;;;;;;;;;;5047854;28;19913;-81
2023/05/14 23:41:31;;;;;;;;;;;;;;;;;;5035186;28;19939;-82
2023/05/14 23:44:18;;;;;;;;;;;;;;;;;;5040574;28;19927;-81
2023/05/14 23:47:04;;;;;;;;;;;;;;;;;;5039535;28;19916;-81
2023/05/14 23:49:51;;;;;;;;;;;;;;;;;;5042879;28;19932;-82
2023/05/14 23:52:37;;;;;;;;;;;;;;;;;;5040601;28;20292;-82
2023/05/14 23:55:24;;;;;;;;;;;;;;;;;;5060588;28;19932;-82
2023/05/14 23:58:10;;;;;;;;;;;;;;;;;;5040578;28;19956;-84
